Time;durP1;ratioP1;P1;durP2;ratioP2;P2;SDS_P1;SDS_P2;PMS_P1;PMS_P2;Temp;Humidity;BMP_temperature;BMP_pressure;BME280_temperature;BME280_humidity;BME280_pressure;Samples;Min_cycle;Max_cycle;Signal;HPM_P1;HPM_P2
2022/02/06 00:02:15;;;;;;;92.13;50.05;;;;;;;;;;4873489;29;20776;-74
2022/02/06 00:04:43;;;;;;;84.75;47.53;;;;;;;;;;4876754;29;20104;-74
2022/02/06 00:07:09;;;;;;;71.03;40.42;;;;;;;;;;4876642;29;20471;-74
2022/02/06 00:09:36;;;;;;;65.72;35.10;;;;;;;;;;4876589;29;20042;-74
2022/02/06 00:12:02;;;;;;;47.90;28.35;;;;;;;;;;4875866;29;20045;-74
2022/02/06 00:14:28;;;;;;;42.20;24.13;;;;;;;;;;4875975;29;20032;-74
2022/02/06 00:16:54;;;;;;;37.05;20.67;;;;;;;;;;4876713;29;20048;-74
2022/02/06 00:19:20;;;;;;;46.13;23.98;;;;;;;;;;4871271;29;20052;-74
2022/02/06 00:21:46;;;;;;;40.58;21.88;;;;;;;;;;4863499;29;20468;-74
2022/02/06 00:24:19;;;;;;;44.00;23.45;;;;;;;;;;4875779;29;20029;-74
2022/02/06 00:26:57;;;;;;;38.25;19.08;;;;;;;;;;4861579;29;20025;-74
2022/02/06 00:29:34;;;;;;;40.38;20.77;;;;;;;;;;4860544;29;20029;-74
2022/02/06 00:32:05;;;;;;;41.75;20.65;;;;;;;;;;4867812;29;20037;-74
2022/02/06 00:39:44;;;;;;;37.13;19.70;;;;;;;;;;4873563;29;20039;-74
2022/02/06 00:42:11;;;;;;;39.55;21.75;;;;;;;;;;4875181;29;20037;-75
2022/02/06 00:44:37;;;;;;;34.75;18.05;;;;;;;;;;4876478;29;20404;-74
2022/02/06 00:47:03;;;;;;;37.20;18.98;;;;;;;;;;4876129;29;20076;-75
2022/02/06 00:49:30;;;;;;;37.53;20.00;;;;;;;;;;4875747;29;20037;-75
2022/02/06 00:52:06;;;;;;;39.90;21.13;;;;;;;;;;4869993;29;20063;-74
2022/02/06 00:54:32;;;;;;;37.03;19.15;;;;;;;;;;4868260;29;20029;-73
2022/02/06 00:56:58;;;;;;;40.00;20.45;;;;;;;;;;4874764;29;20079;-74
2022/02/06 00:59:25;;;;;;;42.25;19.77;;;;;;;;;;4875515;29;20053;-74
2022/02/06 01:01:51;;;;;;;38.78;22.15;;;;;;;;;;4875198;29;20041;-74
2022/02/06 01:04:17;;;;;;;38.33;21.15;;;;;;;;;;4875579;29;20471;-74
2022/02/06 01:06:43;;;;;;;38.15;19.08;;;;;;;;;;4876041;29;20068;-74
2022/02/06 01:09:10;;;;;;;34.55;17.58;;;;;;;;;;4875735;29;20112;-74
2022/02/06 01:11:37;;;;;;;34.95;17.95;;;;;;;;;;4875195;29;20040;-74
2022/02/06 01:14:34;;;;;;;35.90;18.63;;;;;;;;;;4875561;29;20025;-74
2022/02/06 01:19:35;;;;;;;33.83;18.67;;;;;;;;;;4875126;29;20128;-74
2022/02/06 01:22:06;;;;;;;36.50;19.10;;;;;;;;;;4874808;29;20029;-74
2022/02/06 01:24:56;;;;;;;39.13;20.63;;;;;;;;;;4875296;29;20479;-74
2022/02/06 01:27:32;;;;;;;36.47;19.58;;;;;;;;;;4874187;29;20077;-74
2022/02/06 01:30:09;;;;;;;27.60;14.13;;;;;;;;;;4875674;29;20039;-74
2022/02/06 01:32:43;;;;;;;24.45;11.35;;;;;;;;;;4875537;29;20196;-74
2022/02/06 01:35:14;;;;;;;26.38;12.13;;;;;;;;;;4869678;29;20040;-74
2022/02/06 01:42:44;;;;;;;82.82;39.45;;;;;;;;;;4875106;29;20364;-73
2022/02/06 01:45:29;;;;;;;65.97;32.95;;;;;;;;;;4874989;29;20033;-74
2022/02/06 02:04:15;;;;;;;29.45;15.45;;;;;;;;;;4878521;29;20037;-75
2022/02/06 02:07:19;;;;;;;24.33;12.55;;;;;;;;;;4871750;29;20037;-74
2022/02/06 02:10:12;;;;;;;32.50;14.80;;;;;;;;;;4877726;29;20041;-74
2022/02/06 02:45:37;;;;;;;18.73;8.55;;;;;;;;;;4873510;29;20052;-74
2022/02/06 02:48:05;;;;;;;17.05;8.55;;;;;;;;;;4877855;29;20463;-74
2022/02/06 02:50:34;;;;;;;20.20;9.10;;;;;;;;;;4877483;29;20802;-74
2022/02/06 02:53:10;;;;;;;17.25;8.23;;;;;;;;;;4878216;29;20520;-74
2022/02/06 02:56:04;;;;;;;16.75;8.70;;;;;;;;;;4870884;29;20041;-73
2022/02/06 02:58:46;;;;;;;18.40;8.25;;;;;;;;;;4872419;29;20059;-74
2022/02/06 03:01:25;;;;;;;17.95;9.27;;;;;;;;;;4876189;29;20673;-74
2022/02/06 03:03:51;;;;;;;;;;;;;;;;;;4878113;29;20421;-74
2022/02/06 03:06:17;;;;;;;19.30;10.40;;;;;;;;;;4876717;29;19915;-74
2022/02/06 03:08:44;;;;;;;21.08;10.25;;;;;;;;;;4877631;29;20045;-74
2022/02/06 03:11:11;;;;;;;16.75;8.77;;;;;;;;;;4877624;29;20123;-74
2022/02/06 03:13:56;;;;;;;17.33;8.85;;;;;;;;;;4876904;29;20060;-74
2022/02/06 03:16:29;;;;;;;15.32;8.25;;;;;;;;;;4877273;29;20120;-74
2022/02/06 03:18:59;;;;;;;15.70;7.38;;;;;;;;;;4876958;29;20036;-74
2022/02/06 03:21:28;;;;;;;17.15;8.40;;;;;;;;;;4877051;29;20057;-74
2022/02/06 03:23:57;;;;;;;14.38;7.22;;;;;;;;;;4875839;29;20037;-74
2022/02/06 03:26:25;;;;;;;13.70;7.13;;;;;;;;;;4876999;29;20033;-74
2022/02/06 03:28:51;;;;;;;14.02;7.03;;;;;;;;;;4876552;29;20041;-74
2022/02/06 03:31:17;;;;;;;12.85;6.55;;;;;;;;;;4877255;29;20056;-74
2022/02/06 03:33:46;;;;;;;13.73;6.85;;;;;;;;;;4876366;29;20115;-74
2022/02/06 03:36:12;;;;;;;13.13;6.82;;;;;;;;;;4874910;29;20475;-74
2022/02/06 03:38:39;;;;;;;13.25;6.07;;;;;;;;;;4866711;29;20436;-74
2022/02/06 03:41:09;;;;;;;15.00;7.03;;;;;;;;;;4861537;29;20041;-74
2022/02/06 03:43:50;;;;;;;11.10;5.75;;;;;;;;;;4858773;29;20510;-75
2022/02/06 03:46:24;;;;;;;15.75;6.72;;;;;;;;;;4877045;29;20491;-74
2022/02/06 03:51:30;;;;;;;17.05;6.90;;;;;;;;;;4877294;29;20047;-74
2022/02/06 03:53:56;;;;;;;14.40;6.82;;;;;;;;;;4876663;29;20044;-74
2022/02/06 03:56:23;;;;;;;14.13;6.45;;;;;;;;;;4860528;29;20041;-74
2022/02/06 03:58:49;;;;;;;12.77;6.75;;;;;;;;;;4876350;29;20045;-74
2022/02/06 04:01:15;;;;;;;12.00;6.82;;;;;;;;;;4876955;29;20488;-74
2022/02/06 04:03:41;;;;;;;17.08;8.57;;;;;;;;;;4877095;29;20029;-74
2022/02/06 04:06:07;;;;;;;12.75;6.72;;;;;;;;;;4876496;29;20444;-74
2022/02/06 04:08:36;;;;;;;11.88;6.70;;;;;;;;;;4877175;29;20041;-74
2022/02/06 04:11:06;;;;;;;15.23;6.55;;;;;;;;;;4875935;29;20140;-74
2022/02/06 04:13:35;;;;;;;14.23;7.30;;;;;;;;;;4875942;29;20029;-74
2022/02/06 04:16:03;;;;;;;14.18;6.38;;;;;;;;;;4866675;29;20041;-74
2022/02/06 04:18:40;;;;;;;11.48;6.15;;;;;;;;;;4873012;29;20487;-74
2022/02/06 04:21:06;;;;;;;10.88;4.80;;;;;;;;;;4866852;29;20400;-74
2022/02/06 04:23:32;;;;;;;12.13;5.65;;;;;;;;;;4872718;29;20467;-74
2022/02/06 04:25:58;;;;;;;13.65;6.53;;;;;;;;;;4875782;29;20045;-74
2022/02/06 04:28:24;;;;;;;12.82;6.07;;;;;;;;;;4876736;29;20051;-74
2022/02/06 04:30:50;;;;;;;12.10;5.60;;;;;;;;;;4875557;29;20124;-74
2022/02/06 04:33:17;;;;;;;11.57;5.85;;;;;;;;;;4876224;29;20041;-75
2022/02/06 04:35:43;;;;;;;13.40;6.07;;;;;;;;;;4874471;29;20093;-74
2022/02/06 04:43:52;;;;;;;9.35;4.57;;;;;;;;;;4876892;29;20068;-74
2022/02/06 05:29:35;;;;;;;12.63;5.43;;;;;;;;;;4878450;29;20426;-74
2022/02/06 05:32:16;;;;;;;11.27;6.75;;;;;;;;;;4879407;29;20036;-74
2022/02/06 05:34:42;;;;;;;15.02;7.72;;;;;;;;;;4878842;29;20407;-74
2022/02/06 05:37:08;;;;;;;14.35;8.30;;;;;;;;;;4878932;29;20473;-74
2022/02/06 05:39:34;;;;;;;13.88;7.43;;;;;;;;;;4879382;29;20101;-74
2022/02/06 05:42:00;;;;;;;15.65;7.82;;;;;;;;;;4868870;29;20416;-74
2022/02/06 05:44:26;;;;;;;13.55;7.30;;;;;;;;;;4864033;29;20120;-74
2022/02/06 05:46:52;;;;;;;13.82;7.18;;;;;;;;;;4878556;29;20084;-74
2022/02/06 05:49:18;;;;;;;13.77;6.50;;;;;;;;;;4879240;29;20033;-74
2022/02/06 05:51:44;;;;;;;13.93;7.43;;;;;;;;;;4866885;29;20041;-74
2022/02/06 05:54:11;;;;;;;14.88;7.05;;;;;;;;;;4860768;29;20041;-74
2022/02/06 05:56:37;;;;;;;13.85;7.43;;;;;;;;;;4866128;29;20041;-74
2022/02/06 05:59:03;;;;;;;23.00;12.57;;;;;;;;;;4878812;29;20583;-76
2022/02/06 06:01:30;;;;;;;22.52;12.02;;;;;;;;;;4878577;29;20075;-77
2022/02/06 06:03:56;;;;;;;18.77;11.48;;;;;;;;;;4879478;29;20250;-76
2022/02/06 06:06:22;;;;;;;16.83;8.18;;;;;;;;;;4877037;29;20033;-76
2022/02/06 06:08:48;;;;;;;13.77;7.38;;;;;;;;;;4878836;29;20037;-74
2022/02/06 06:11:14;;;;;;;14.70;7.47;;;;;;;;;;4878715;29;20045;-76
2022/02/06 06:13:40;;;;;;;14.63;9.20;;;;;;;;;;4866541;29;20039;-76
2022/02/06 06:16:08;;;;;;;14.43;7.35;;;;;;;;;;4873760;29;20098;-76
2022/02/06 06:18:34;;;;;;;14.07;7.45;;;;;;;;;;4875207;29;20073;-76
2022/02/06 06:21:01;;;;;;;14.88;7.60;;;;;;;;;;4877420;29;20045;-76
2022/02/06 06:23:28;;;;;;;14.48;7.47;;;;;;;;;;4863353;29;20033;-76
2022/02/06 06:25:54;;;;;;;12.40;7.32;;;;;;;;;;4878449;29;20527;-76
2022/02/06 06:28:20;;;;;;;12.50;6.95;;;;;;;;;;4872562;29;20033;-76
2022/02/06 06:30:46;;;;;;;13.30;7.95;;;;;;;;;;4878350;29;20547;-74
2022/02/06 06:33:12;;;;;;;13.70;7.43;;;;;;;;;;4878029;29;20036;-76
2022/02/06 06:35:39;;;;;;;16.63;8.02;;;;;;;;;;4876770;29;20097;-76
2022/02/06 06:38:05;;;;;;;11.60;7.43;;;;;;;;;;4868813;29;20802;-76
2022/02/06 06:40:31;;;;;;;13.43;7.43;;;;;;;;;;4878293;29;20706;-76
2022/02/06 06:42:58;;;;;;;15.80;8.52;;;;;;;;;;4859524;29;20091;-74
2022/02/06 06:45:24;;;;;;;14.57;7.72;;;;;;;;;;4869347;29;20078;-74
2022/02/06 06:47:53;;;;;;;13.65;7.93;;;;;;;;;;4877531;29;20033;-76
2022/02/06 06:50:19;;;;;;;15.43;7.97;;;;;;;;;;4861420;29;20455;-77
2022/02/06 06:52:48;;;;;;;13.63;7.63;;;;;;;;;;4877495;29;20040;-74
2022/02/06 06:55:19;;;;;;;14.68;8.07;;;;;;;;;;4875313;29;20116;-75
2022/02/06 06:57:53;;;;;;;16.00;8.90;;;;;;;;;;4875499;29;20033;-74
2022/02/06 07:00:35;;;;;;;13.60;7.72;;;;;;;;;;4869908;29;20089;-74
2022/02/06 07:03:02;;;;;;;15.70;7.97;;;;;;;;;;4866374;29;20705;-76
2022/02/06 07:05:28;;;;;;;14.65;8.05;;;;;;;;;;4863844;29;20029;-74
2022/02/06 07:07:56;;;;;;;16.73;7.90;;;;;;;;;;4862238;29;20112;-74
2022/02/06 07:10:22;;;;;;;15.95;8.60;;;;;;;;;;4864137;29;20093;-76
2022/02/06 07:12:49;;;;;;;20.30;7.65;;;;;;;;;;4875143;29;20827;-73
2022/02/06 07:15:15;;;;;;;12.73;7.80;;;;;;;;;;4876050;29;20041;-73
2022/02/06 07:17:41;;;;;;;16.75;7.97;;;;;;;;;;4866340;29;20037;-76
2022/02/06 07:20:07;;;;;;;16.25;8.18;;;;;;;;;;4870009;29;20033;-74
2022/02/06 07:22:36;;;;;;;16.65;8.32;;;;;;;;;;4873794;29;20786;-74
2022/02/06 07:25:02;;;;;;;16.50;8.48;;;;;;;;;;4873807;29;20033;-75
2022/02/06 07:27:32;;;;;;;16.52;9.18;;;;;;;;;;4868083;29;21011;-74
2022/02/06 07:30:03;;;;;;;16.70;8.95;;;;;;;;;;4852846;29;20395;-74
2022/02/06 07:32:31;;;;;;;15.00;8.45;;;;;;;;;;4875121;29;20037;-74
2022/02/06 07:34:57;;;;;;;14.70;8.40;;;;;;;;;;4877069;29;20154;-75
2022/02/06 07:37:23;;;;;;;16.92;9.10;;;;;;;;;;4873835;29;20037;-74
2022/02/06 07:39:49;;;;;;;15.45;8.30;;;;;;;;;;4862337;29;20084;-74
2022/02/06 07:42:15;;;;;;;15.73;8.23;;;;;;;;;;4874366;29;20472;-74
2022/02/06 07:44:46;;;;;;;15.13;8.00;;;;;;;;;;4877167;29;20071;-74
2022/02/06 07:47:15;;;;;;;19.48;10.50;;;;;;;;;;4876943;29;20115;-74
2022/02/06 07:49:44;;;;;;;52.40;29.25;;;;;;;;;;4869725;29;20123;-73
2022/02/06 07:52:10;;;;;;;32.28;18.58;;;;;;;;;;4874057;29;20120;-74
2022/02/06 07:54:36;;;;;;;25.88;14.57;;;;;;;;;;4875204;29;20128;-74
2022/02/06 07:57:04;;;;;;;18.80;11.38;;;;;;;;;;4874567;29;20580;-75
2022/02/06 07:59:30;;;;;;;19.20;10.30;;;;;;;;;;4876230;29;20021;-75
2022/02/06 08:01:56;;;;;;;16.92;7.50;;;;;;;;;;4866691;29;20089;-75
2022/02/06 08:04:22;;;;;;;13.10;8.00;;;;;;;;;;4867826;29;20502;-75
2022/02/06 08:06:48;;;;;;;16.98;7.80;;;;;;;;;;4874614;29;20036;-75
2022/02/06 08:09:15;;;;;;;15.05;8.02;;;;;;;;;;4872032;29;20037;-75
2022/02/06 08:11:46;;;;;;;20.15;11.85;;;;;;;;;;4874737;29;20495;-75
2022/02/06 08:14:48;;;;;;;18.98;11.63;;;;;;;;;;4872763;29;20120;-75
2022/02/06 08:16:58;;;;;;;70.90;36.90;;;;;;;;;;4875984;29;20040;-75
2022/02/06 08:19:24;;;;;;;64.13;33.60;;;;;;;;;;4875321;29;20037;-75
2022/02/06 08:21:50;;;;;;;52.00;29.58;;;;;;;;;;4874893;29;20108;-75
2022/02/06 08:24:16;;;;;;;21.80;12.88;;;;;;;;;;4865331;29;20166;-75
2022/02/06 08:26:42;;;;;;;18.48;11.55;;;;;;;;;;4873620;29;20029;-75
2022/02/06 08:29:09;;;;;;;15.95;10.65;;;;;;;;;;4860677;29;20079;-75
2022/02/06 08:31:35;;;;;;;16.33;9.93;;;;;;;;;;4866625;29;20407;-75
2022/02/06 08:34:01;;;;;;;15.15;9.18;;;;;;;;;;4876117;29;20085;-75
2022/02/06 08:36:27;;;;;;;14.05;8.55;;;;;;;;;;4873338;29;20509;-75
2022/02/06 08:38:53;;;;;;;13.18;8.20;;;;;;;;;;4875804;29;20502;-75
2022/02/06 08:41:19;;;;;;;14.07;8.20;;;;;;;;;;4871130;29;20033;-75
2022/02/06 08:43:45;;;;;;;14.07;7.40;;;;;;;;;;4876306;29;20033;-75
2022/02/06 08:46:11;;;;;;;10.95;6.70;;;;;;;;;;4865341;29;20582;-76
2022/02/06 08:48:38;;;;;;;15.40;9.75;;;;;;;;;;4869552;29;20127;-75
2022/02/06 08:51:06;;;;;;;15.57;10.07;;;;;;;;;;4874977;29;20366;-75
2022/02/06 08:53:32;;;;;;;17.30;10.93;;;;;;;;;;4875816;29;20112;-75
2022/02/06 08:55:58;;;;;;;14.88;9.10;;;;;;;;;;4867155;29;20681;-75
2022/02/06 08:58:24;;;;;;;14.70;9.45;;;;;;;;;;4875953;29;20045;-75
2022/02/06 09:00:50;;;;;;;15.85;9.68;;;;;;;;;;4874652;29;20044;-75
2022/02/06 09:03:16;;;;;;;19.00;10.10;;;;;;;;;;4873434;29;20920;-75
2022/02/06 09:05:43;;;;;;;15.18;9.00;;;;;;;;;;4867783;29;20065;-75
2022/02/06 09:08:09;;;;;;;16.15;7.93;;;;;;;;;;4870213;29;20483;-75
2022/02/06 09:10:35;;;;;;;14.85;7.85;;;;;;;;;;4872974;29;20041;-75
2022/02/06 09:13:04;;;;;;;13.55;7.15;;;;;;;;;;4869624;29;20484;-75
2022/02/06 09:15:30;;;;;;;12.18;6.88;;;;;;;;;;4871063;29;20045;-75
2022/02/06 09:17:57;;;;;;;13.00;7.05;;;;;;;;;;4855837;29;20206;-75
2022/02/06 09:20:23;;;;;;;14.32;6.97;;;;;;;;;;4875313;29;20041;-76
2022/02/06 09:22:49;;;;;;;13.60;7.63;;;;;;;;;;4870848;29;20040;-75
2022/02/06 09:25:15;;;;;;;13.68;7.75;;;;;;;;;;4874752;29;20083;-75
2022/02/06 09:27:43;;;;;;;14.30;8.43;;;;;;;;;;4867268;29;20080;-75
2022/02/06 09:30:12;;;;;;;15.55;8.60;;;;;;;;;;4874785;29;20041;-75
2022/02/06 09:37:31;;;;;;;14.05;7.97;;;;;;;;;;4865606;29;20442;-74
2022/02/06 09:39:58;;;;;;;13.93;7.93;;;;;;;;;;4868243;29;20097;-75
2022/02/06 09:42:25;;;;;;;12.65;6.47;;;;;;;;;;4865547;29;20053;-75
2022/02/06 09:44:52;;;;;;;14.05;6.50;;;;;;;;;;4875598;29;20108;-74
2022/02/06 09:47:23;;;;;;;15.52;7.45;;;;;;;;;;4873926;29;20045;-74
2022/02/06 09:49:49;;;;;;;12.98;7.63;;;;;;;;;;4875031;29;20063;-74
2022/02/06 09:52:25;;;;;;;12.32;7.40;;;;;;;;;;4874813;29;20037;-74
2022/02/06 09:54:51;;;;;;;14.43;9.15;;;;;;;;;;4875373;29;20045;-74
2022/02/06 09:57:25;;;;;;;14.77;7.45;;;;;;;;;;4874616;29;20084;-74
2022/02/06 09:59:53;;;;;;;9.55;5.10;;;;;;;;;;4875322;29;20815;-74
2022/02/06 10:02:19;;;;;;;11.30;6.45;;;;;;;;;;4874836;29;20033;-74
2022/02/06 10:04:48;;;;;;;16.38;6.45;;;;;;;;;;4862754;29;20079;-74
2022/02/06 10:07:16;;;;;;;10.43;5.93;;;;;;;;;;4871335;29;20048;-74
2022/02/06 10:09:42;;;;;;;15.10;7.43;;;;;;;;;;4869895;29;20037;-74
2022/02/06 10:12:08;;;;;;;14.30;8.90;;;;;;;;;;4874260;29;20082;-75
2022/02/06 10:14:34;;;;;;;16.85;9.10;;;;;;;;;;4870242;29;20681;-75
2022/02/06 10:17:00;;;;;;;15.30;8.32;;;;;;;;;;4871027;29;20044;-75
2022/02/06 10:19:28;;;;;;;10.30;6.32;;;;;;;;;;4870826;29;20045;-74
2022/02/06 10:21:54;;;;;;;11.73;5.70;;;;;;;;;;4868736;29;20116;-73
2022/02/06 10:24:28;;;;;;;11.63;5.40;;;;;;;;;;4865493;29;20049;-74
2022/02/06 10:27:16;;;;;;;12.02;5.90;;;;;;;;;;4870118;29;20128;-74
2022/02/06 10:29:44;;;;;;;10.38;4.60;;;;;;;;;;4868092;29;20384;-74
2022/02/06 10:32:17;;;;;;;9.75;4.93;;;;;;;;;;4876258;29;20044;-74
2022/02/06 10:34:44;;;;;;;9.27;4.72;;;;;;;;;;4873253;29;20036;-74
2022/02/06 10:37:10;;;;;;;11.55;4.97;;;;;;;;;;4874059;29;20033;-73
2022/02/06 10:39:40;;;;;;;13.57;5.03;;;;;;;;;;4856940;29;20040;-75
2022/02/06 10:42:27;;;;;;;11.18;5.63;;;;;;;;;;4874830;29;20056;-74
2022/02/06 10:45:11;;;;;;;9.77;5.03;;;;;;;;;;4872999;29;20061;-73
2022/02/06 10:47:38;;;;;;;8.73;5.50;;;;;;;;;;4877021;29;20387;-74
2022/02/06 10:50:10;;;;;;;10.63;4.97;;;;;;;;;;4878080;29;20032;-74
2022/02/06 10:52:36;;;;;;;12.65;5.68;;;;;;;;;;4870471;29;20093;-74
2022/02/06 10:55:02;;;;;;;10.57;5.10;;;;;;;;;;4872261;29;20041;-73
2022/02/06 10:57:28;;;;;;;13.85;5.38;;;;;;;;;;4863120;29;20056;-73
2022/02/06 10:59:55;;;;;;;12.30;5.38;;;;;;;;;;4877013;29;20040;-73
2022/02/06 11:02:31;;;;;;;11.30;5.55;;;;;;;;;;4877793;29;20387;-74
2022/02/06 11:05:14;;;;;;;8.48;4.00;;;;;;;;;;4876018;29;20032;-74
2022/02/06 11:08:01;;;;;;;7.22;2.50;;;;;;;;;;4875547;29;20044;-74
2022/02/06 11:10:30;;;;;;;6.53;1.60;;;;;;;;;;4877026;29;20044;-73
2022/02/06 11:12:57;;;;;;;6.85;2.20;;;;;;;;;;4871692;29;20615;-74
2022/02/06 11:15:24;;;;;;;8.13;2.15;;;;;;;;;;4864972;29;20515;-74
2022/02/06 11:18:06;;;;;;;7.78;2.90;;;;;;;;;;4870237;29;20041;-74
2022/02/06 11:20:33;;;;;;;7.43;2.63;;;;;;;;;;4873158;29;20505;-74
2022/02/06 11:23:03;;;;;;;7.03;2.78;;;;;;;;;;4877360;29;20159;-74
2022/02/06 11:25:29;;;;;;;10.63;4.10;;;;;;;;;;4871220;29;20039;-74
2022/02/06 11:27:59;;;;;;;16.73;5.80;;;;;;;;;;4863826;29;20408;-74
2022/02/06 11:30:25;;;;;;;7.72;3.50;;;;;;;;;;4877391;29;20061;-74
2022/02/06 11:32:52;;;;;;;10.00;3.42;;;;;;;;;;4877359;29;20041;-74
2022/02/06 11:35:22;;;;;;;9.43;1.80;;;;;;;;;;4876854;29;20052;-74
2022/02/06 11:46:11;;;;;;;7.90;1.30;;;;;;;;;;4871330;29;20742;-74
2022/02/06 11:48:38;;;;;;;4.05;0.90;;;;;;;;;;4876274;29;20037;-75
2022/02/06 11:51:05;;;;;;;8.48;1.75;;;;;;;;;;4876969;29;20064;-74
2022/02/06 11:53:37;;;;;;;6.95;1.98;;;;;;;;;;4864093;29;20052;-75
2022/02/06 11:56:03;;;;;;;;;;;;;;;;;;4875020;29;20047;-74
2022/02/06 11:58:38;;;;;;;5.35;1.92;;;;;;;;;;4876789;29;19923;-74
2022/02/06 12:01:07;;;;;;;5.95;1.35;;;;;;;;;;4877136;29;20048;-74
2022/02/06 12:03:53;;;;;;;3.72;1.23;;;;;;;;;;4876260;29;20069;-74
2022/02/06 12:06:20;;;;;;;6.70;1.15;;;;;;;;;;4876220;29;20037;-73
2022/02/06 12:08:58;;;;;;;6.75;1.20;;;;;;;;;;4865274;29;20036;-73
2022/02/06 12:11:24;;;;;;;6.63;1.30;;;;;;;;;;4876631;29;20052;-74
2022/02/06 12:14:09;;;;;;;7.13;1.40;;;;;;;;;;4877033;29;20687;-74
2022/02/06 12:16:48;;;;;;;7.03;1.73;;;;;;;;;;4875937;29;20041;-74
2022/02/06 12:19:31;;;;;;;5.68;1.15;;;;;;;;;;4871155;29;20037;-74
2022/02/06 12:22:01;;;;;;;7.93;1.42;;;;;;;;;;4872622;29;20132;-74
2022/02/06 12:24:36;;;;;;;4.82;1.20;;;;;;;;;;4867624;29;20041;-74
2022/02/06 12:27:21;;;;;;;5.53;1.20;;;;;;;;;;4876327;29;20033;-74
2022/02/06 12:29:52;;;;;;;7.47;1.52;;;;;;;;;;4871824;29;20037;-74
2022/02/06 12:32:40;;;;;;;5.93;1.40;;;;;;;;;;4876306;29;20082;-74
2022/02/06 12:37:53;;;;;;;7.28;1.13;;;;;;;;;;4876646;29;20048;-74
2022/02/06 12:40:23;;;;;;;5.72;1.10;;;;;;;;;;4872668;29;20448;-74
2022/02/06 12:42:59;;;;;;;3.45;0.90;;;;;;;;;;4871094;29;20087;-73
2022/02/06 12:45:25;;;;;;;5.82;1.33;;;;;;;;;;4870020;29;20120;-73
2022/02/06 12:47:54;;;;;;;5.57;1.10;;;;;;;;;;4866336;29;20364;-73
2022/02/06 12:50:24;;;;;;;4.82;1.00;;;;;;;;;;4863729;29;20081;-73
2022/02/06 12:52:51;;;;;;;9.82;1.08;;;;;;;;;;4875396;29;20041;-73
2022/02/06 12:55:17;;;;;;;5.00;1.25;;;;;;;;;;4875505;29;20120;-73
2022/02/06 12:57:44;;;;;;;7.40;1.10;;;;;;;;;;4875146;29;20060;-74
2022/02/06 13:00:23;;;;;;;6.55;1.40;;;;;;;;;;4875225;29;20111;-74
2022/02/06 13:02:49;;;;;;;6.50;0.90;;;;;;;;;;4875458;29;20149;-74
2022/02/06 13:05:15;;;;;;;6.93;1.27;;;;;;;;;;4875015;29;20100;-74
2022/02/06 13:07:45;;;;;;;4.65;0.98;;;;;;;;;;4875652;29;20047;-74
2022/02/06 13:10:12;;;;;;;4.90;0.80;;;;;;;;;;4874978;29;20037;-74
2022/02/06 13:12:47;;;;;;;4.05;0.88;;;;;;;;;;4874840;29;20037;-74
2022/02/06 13:15:46;;;;;;;3.70;0.77;;;;;;;;;;4872810;29;20037;-74
2022/02/06 13:38:38;;;;;;;8.18;1.08;;;;;;;;;;4876134;29;20093;-73
2022/02/06 13:41:12;;;;;;;3.72;0.77;;;;;;;;;;4874645;29;20029;-74
2022/02/06 13:43:41;;;;;;;7.28;0.90;;;;;;;;;;4875799;29;20073;-74
2022/02/06 13:46:14;;;;;;;11.82;1.38;;;;;;;;;;4862174;29;20857;-74
2022/02/06 13:48:40;;;;;;;6.65;0.93;;;;;;;;;;4872869;29;20415;-74
2022/02/06 13:51:09;;;;;;;6.18;0.88;;;;;;;;;;4878213;29;20037;-73
2022/02/06 13:53:36;;;;;;;7.25;1.50;;;;;;;;;;4867525;29;20069;-74
2022/02/06 13:56:04;;;;;;;14.65;3.47;;;;;;;;;;4872492;29;20115;-74
2022/02/06 13:58:31;;;;;;;6.72;1.70;;;;;;;;;;4878479;29;20052;-74
2022/02/06 14:00:59;;;;;;;7.00;2.55;;;;;;;;;;4878949;29;20044;-74
2022/02/06 14:03:41;;;;;;;9.65;2.65;;;;;;;;;;4878634;29;20037;-74
2022/02/06 14:06:07;;;;;;;9.60;2.35;;;;;;;;;;4873875;29;20029;-74
2022/02/06 14:08:36;;;;;;;7.28;2.50;;;;;;;;;;4879182;29;20044;-74
2022/02/06 14:11:11;;;;;;;6.70;1.83;;;;;;;;;;4876431;29;20491;-74
2022/02/06 14:13:37;;;;;;;6.03;1.10;;;;;;;;;;4878721;29;20044;-74
2022/02/06 14:16:09;;;;;;;5.63;1.38;;;;;;;;;;4877063;29;20047;-74
2022/02/06 14:18:36;;;;;;;;;;;;;;;;;;4879116;29;20040;-74
2022/02/06 14:21:02;;;;;;;6.70;1.10;;;;;;;;;;4877930;29;19920;-74
2022/02/06 14:23:28;;;;;;;6.75;1.52;;;;;;;;;;4878615;29;20790;-74
2022/02/06 14:26:09;;;;;;;10.43;2.03;;;;;;;;;;4871067;29;20037;-74
2022/02/06 14:28:45;;;;;;;7.18;1.13;;;;;;;;;;4860844;29;20038;-74
2022/02/06 14:31:21;;;;;;;7.57;1.45;;;;;;;;;;4878250;29;20492;-74
2022/02/06 14:33:47;;;;;;;7.28;1.20;;;;;;;;;;4878439;29;20088;-74
2022/02/06 14:36:17;;;;;;;7.10;1.00;;;;;;;;;;4872083;29;20044;-73
2022/02/06 14:38:57;;;;;;;7.72;1.10;;;;;;;;;;4875548;29;20064;-73
2022/02/06 14:41:27;;;;;;;6.35;1.00;;;;;;;;;;4878226;29;20130;-73
2022/02/06 14:44:00;;;;;;;9.77;3.17;;;;;;;;;;4877717;29;20040;-73
2022/02/06 14:46:27;;;;;;;6.35;1.85;;;;;;;;;;4871908;29;20454;-73
2022/02/06 14:48:53;;;;;;;10.35;4.18;;;;;;;;;;4877768;29;20045;-73
2022/02/06 14:51:20;;;;;;;14.18;8.18;;;;;;;;;;4868941;29;20091;-73
2022/02/06 14:53:46;;;;;;;12.68;6.72;;;;;;;;;;4877577;29;20037;-74
2022/02/06 14:56:13;;;;;;;10.88;4.30;;;;;;;;;;4876457;29;20040;-73
2022/02/06 14:58:40;;;;;;;12.30;4.10;;;;;;;;;;4875955;29;20053;-74
2022/02/06 15:01:06;;;;;;;11.15;4.00;;;;;;;;;;4877628;29;20037;-74
2022/02/06 15:03:32;;;;;;;7.07;2.42;;;;;;;;;;4878266;29;20494;-74
2022/02/06 15:05:58;;;;;;;13.68;4.78;;;;;;;;;;4877236;29;20168;-74
2022/02/06 15:08:24;;;;;;;5.60;1.30;;;;;;;;;;4878225;29;20478;-74
2022/02/06 15:10:51;;;;;;;6.85;1.10;;;;;;;;;;4876128;29;20040;-74
2022/02/06 15:13:17;;;;;;;4.68;1.10;;;;;;;;;;4878080;29;20040;-74
2022/02/06 15:16:29;;;;;;;20.15;6.38;;;;;;;;;;4876772;29;20047;-73
2022/02/06 15:18:42;;;;;;;26.13;12.60;;;;;;;;;;4869889;29;20044;-74
2022/02/06 15:21:09;;;;;;;12.00;3.78;;;;;;;;;;4876121;29;20037;-74
2022/02/06 15:23:36;;;;;;;4.72;0.95;;;;;;;;;;4877527;29;20033;-73
2022/02/06 15:26:02;;;;;;;9.73;3.17;;;;;;;;;;4876759;29;20037;-74
2022/02/06 15:28:28;;;;;;;8.27;1.95;;;;;;;;;;4877598;29;20033;-74
2022/02/06 15:30:54;;;;;;;4.57;0.80;;;;;;;;;;4877681;29;20048;-74
2022/02/06 15:33:21;;;;;;;6.30;1.30;;;;;;;;;;4877248;29;20044;-74
2022/02/06 15:35:47;;;;;;;3.80;0.80;;;;;;;;;;4877041;29;20041;-73
2022/02/06 15:38:16;;;;;;;5.78;1.08;;;;;;;;;;4876259;29;20040;-73
2022/02/06 15:40:42;;;;;;;21.92;9.45;;;;;;;;;;4877375;29;20033;-74
2022/02/06 15:43:08;;;;;;;15.98;5.53;;;;;;;;;;4871153;29;20037;-73
2022/02/06 15:45:35;;;;;;;9.35;2.28;;;;;;;;;;4877225;29;20036;-73
2022/02/06 15:48:01;;;;;;;8.55;2.85;;;;;;;;;;4876431;29;20060;-73
2022/02/06 15:50:27;;;;;;;17.35;6.03;;;;;;;;;;4877277;29;20048;-74
2022/02/06 15:52:53;;;;;;;7.28;2.65;;;;;;;;;;4876717;29;20041;-74
2022/02/06 15:55:19;;;;;;;18.80;7.13;;;;;;;;;;4876762;29;20825;-73
2022/02/06 15:57:45;;;;;;;16.15;5.40;;;;;;;;;;4875843;29;20728;-73
2022/02/06 16:00:12;;;;;;;15.23;4.15;;;;;;;;;;4877099;29;20040;-74
2022/02/06 16:02:38;;;;;;;12.68;4.30;;;;;;;;;;4876036;29;20040;-74
2022/02/06 16:05:04;;;;;;;11.77;2.58;;;;;;;;;;4872179;29;20049;-73
2022/02/06 16:07:30;;;;;;;7.70;1.50;;;;;;;;;;4869327;29;20040;-74
2022/02/06 16:09:56;;;;;;;8.98;2.13;;;;;;;;;;4868857;29;20049;-73
2022/02/06 16:12:23;;;;;;;8.93;1.30;;;;;;;;;;4868405;29;20074;-74
2022/02/06 16:14:49;;;;;;;5.57;1.50;;;;;;;;;;4869151;29;20037;-74
2022/02/06 16:17:15;;;;;;;7.10;1.83;;;;;;;;;;4866598;29;20420;-74
2022/02/06 16:19:42;;;;;;;9.68;3.65;;;;;;;;;;4867028;29;20040;-73
2022/02/06 16:22:08;;;;;;;7.75;1.40;;;;;;;;;;4876632;29;20033;-73
2022/02/06 16:24:34;;;;;;;7.45;2.70;;;;;;;;;;4876063;29;20041;-74
2022/02/06 16:27:01;;;;;;;5.32;1.20;;;;;;;;;;4876344;29;20371;-74
2022/02/06 16:29:27;;;;;;;6.53;1.42;;;;;;;;;;4874136;29;20045;-73
2022/02/06 16:31:53;;;;;;;7.05;2.00;;;;;;;;;;4874769;29;20497;-74
2022/02/06 16:34:19;;;;;;;7.80;1.20;;;;;;;;;;4875615;29;20737;-73
2022/02/06 16:36:45;;;;;;;5.82;1.33;;;;;;;;;;4875612;29;20111;-74
2022/02/06 16:39:16;;;;;;;8.20;3.72;;;;;;;;;;4872121;29;20205;-74
2022/02/06 16:41:42;;;;;;;7.57;2.47;;;;;;;;;;4875066;29;20021;-74
2022/02/06 16:44:08;;;;;;;6.05;2.00;;;;;;;;;;4875583;29;20100;-74
2022/02/06 16:46:34;;;;;;;9.30;3.15;;;;;;;;;;4876129;29;20047;-74
2022/02/06 16:49:01;;;;;;;13.63;5.55;;;;;;;;;;4875362;29;20081;-74
2022/02/06 16:51:27;;;;;;;11.10;4.38;;;;;;;;;;4876233;29;20039;-74
2022/02/06 16:53:53;;;;;;;13.77;5.50;;;;;;;;;;4868904;29;20045;-73
2022/02/06 16:56:19;;;;;;;9.15;4.20;;;;;;;;;;4875893;29;20472;-74
2022/02/06 16:58:46;;;;;;;10.95;3.50;;;;;;;;;;4873366;29;20192;-74
2022/02/06 17:01:12;;;;;;;18.30;9.20;;;;;;;;;;4875793;29;20041;-74
2022/02/06 17:03:38;;;;;;;18.70;9.90;;;;;;;;;;4871414;29;20056;-74
2022/02/06 17:06:05;;;;;;;14.05;6.72;;;;;;;;;;4874319;29;20484;-74
2022/02/06 17:08:33;;;;;;;15.95;7.57;;;;;;;;;;4871350;29;20464;-74
2022/02/06 17:11:00;;;;;;;13.13;4.85;;;;;;;;;;4869450;29;20041;-73
2022/02/06 17:13:26;;;;;;;10.73;4.00;;;;;;;;;;4865581;29;20511;-74
2022/02/06 17:15:52;;;;;;;13.07;3.95;;;;;;;;;;4856750;29;20064;-74